createdAt,value
2018-07-15T00:01:52.644Z,17.40
2018-07-15T00:04:21.415Z,17.30
2018-07-15T00:06:50.181Z,17.30
2018-07-15T00:09:19.022Z,17.20
2018-07-15T00:11:47.784Z,17.20
2018-07-15T00:14:16.451Z,17.20
2018-07-15T00:16:45.085Z,17.20
2018-07-15T00:19:13.738Z,17.20
2018-07-15T00:21:42.486Z,17.20
2018-07-15T00:24:11.164Z,17.30
2018-07-15T00:26:39.914Z,17.40
2018-07-15T00:29:08.657Z,17.50
2018-07-15T00:31:37.340Z,17.50
2018-07-15T00:34:06.071Z,17.60
2018-07-15T00:36:34.714Z,17.60
2018-07-15T00:39:03.530Z,17.60
2018-07-15T00:41:32.181Z,17.60
2018-07-15T00:44:00.828Z,17.60
2018-07-15T00:46:29.483Z,17.50
2018-07-15T00:48:58.162Z,17.40
2018-07-15T00:51:26.799Z,17.40
2018-07-15T00:56:24.171Z,17.20
2018-07-15T00:58:52.880Z,17.00
2018-07-15T01:01:21.543Z,17.00
2018-07-15T01:03:50.290Z,16.90
2018-07-15T01:06:18.994Z,16.80
2018-07-15T01:08:47.702Z,16.70
2018-07-15T01:11:16.287Z,16.70
2018-07-15T01:13:44.867Z,16.80
2018-07-15T01:16:13.747Z,16.90
2018-07-15T01:18:42.381Z,17.00
2018-07-15T01:21:10.917Z,17.00
2018-07-15T01:23:39.569Z,16.90
2018-07-15T01:26:08.207Z,16.80
2018-07-15T01:28:36.797Z,16.70
2018-07-15T01:31:05.481Z,16.70
2018-07-15T01:33:34.096Z,16.70
2018-07-15T01:36:02.817Z,16.70
2018-07-15T01:38:31.582Z,16.70
2018-07-15T01:41:00.278Z,16.70
2018-07-15T01:43:28.955Z,16.60
2018-07-15T01:45:57.674Z,16.50
2018-07-15T01:48:26.396Z,16.50
2018-07-15T01:50:56.368Z,16.50
2018-07-15T01:53:25.131Z,16.50
2018-07-15T01:55:53.924Z,16.60
2018-07-15T01:58:22.562Z,16.60
2018-07-15T02:00:51.253Z,16.50
2018-07-15T02:03:19.939Z,16.50
2018-07-15T02:05:48.608Z,16.50
2018-07-15T02:08:17.198Z,16.50
2018-07-15T02:10:45.765Z,16.50
2018-07-15T02:13:14.406Z,16.50
2018-07-15T02:15:43.147Z,16.60
2018-07-15T02:18:11.855Z,16.50
2018-07-15T02:20:40.602Z,16.50
2018-07-15T02:23:09.338Z,16.50
2018-07-15T02:25:38.252Z,16.40
2018-07-15T02:28:06.979Z,16.30
2018-07-15T02:30:35.757Z,16.30
2018-07-15T02:33:04.612Z,16.10
2018-07-15T02:35:33.290Z,16.00
2018-07-15T02:38:03.257Z,15.90
2018-07-15T02:40:31.926Z,15.80
2018-07-15T02:43:00.604Z,15.70
2018-07-15T02:45:29.259Z,15.70
2018-07-15T02:47:57.920Z,15.70
2018-07-15T02:50:26.630Z,15.70
2018-07-15T02:52:55.278Z,15.60
2018-07-15T02:55:23.938Z,15.50
2018-07-15T02:57:52.646Z,15.50
2018-07-15T03:00:21.349Z,15.40
2018-07-15T03:02:49.967Z,15.40
2018-07-15T03:05:19.054Z,15.30
2018-07-15T03:07:47.753Z,15.30
2018-07-15T03:10:16.448Z,15.40
2018-07-15T03:12:45.084Z,15.50
2018-07-15T03:15:13.750Z,15.50
2018-07-15T03:17:42.414Z,15.40
2018-07-15T03:20:11.111Z,15.40
2018-07-15T03:22:39.725Z,15.30
2018-07-15T03:25:08.568Z,15.30
2018-07-15T03:27:37.336Z,15.30
2018-07-15T03:30:05.993Z,15.30
2018-07-15T03:32:34.641Z,15.30
2018-07-15T03:37:31.694Z,15.30
2018-07-15T03:42:28.648Z,15.60
2018-07-15T03:44:57.278Z,15.70
2018-07-15T03:47:26.043Z,15.80
2018-07-15T03:49:54.794Z,15.90
2018-07-15T03:52:23.427Z,15.90
2018-07-15T03:54:52.110Z,15.80
2018-07-15T03:57:20.746Z,15.80
2018-07-15T03:59:49.488Z,15.80
2018-07-15T04:02:18.163Z,15.70
2018-07-15T04:04:46.860Z,15.60
2018-07-15T04:07:15.548Z,15.60
2018-07-15T04:09:44.178Z,15.50
2018-07-15T04:12:12.798Z,15.50
2018-07-15T04:14:41.386Z,15.50
2018-07-15T04:17:13.132Z,15.50
2018-07-15T04:19:41.758Z,15.50
2018-07-15T04:22:10.436Z,15.60
2018-07-15T04:24:39.114Z,15.70
2018-07-15T04:27:07.850Z,15.80
2018-07-15T04:29:36.553Z,15.90
2018-07-15T04:32:05.341Z,16.00
2018-07-15T04:34:33.963Z,16.10
2018-07-15T04:37:02.690Z,16.20
2018-07-15T04:39:31.306Z,16.10
2018-07-15T04:41:59.920Z,16.20
2018-07-15T04:44:28.571Z,16.40
2018-07-15T04:49:25.463Z,16.60
2018-07-15T04:51:54.131Z,16.70
2018-07-15T04:54:22.794Z,16.90
2018-07-15T04:56:51.583Z,17.20
2018-07-15T04:59:20.314Z,17.40
2018-07-15T05:01:48.930Z,17.60
2018-07-15T05:04:17.643Z,17.70
2018-07-15T05:06:46.318Z,17.80
2018-07-15T05:09:15.204Z,17.80
2018-07-15T05:11:59.609Z,18.00
2018-07-15T05:14:28.325Z,18.00
2018-07-15T05:16:57.008Z,18.10
2018-07-15T05:19:25.691Z,18.10
2018-07-15T05:21:54.362Z,18.20
2018-07-15T05:24:23.011Z,18.30
2018-07-15T05:26:58.797Z,18.40
2018-07-15T05:29:27.385Z,18.50
2018-07-15T05:31:56.092Z,18.60
2018-07-15T05:34:24.866Z,18.60
2018-07-15T05:36:53.656Z,18.70
2018-07-15T05:39:22.310Z,18.80
2018-07-15T05:41:51.041Z,18.90
2018-07-15T05:44:19.783Z,18.90
2018-07-15T05:47:09.098Z,18.80
2018-07-15T05:49:37.825Z,18.90
2018-07-15T05:52:06.519Z,19.00
2018-07-15T05:54:43.291Z,19.20
2018-07-15T06:00:18.236Z,19.80
2018-07-15T06:02:46.860Z,20.20
2018-07-15T06:05:15.507Z,20.50
2018-07-15T06:08:00.360Z,20.80
2018-07-15T06:10:29.043Z,21.00
2018-07-15T06:12:57.854Z,21.30
2018-07-15T06:15:28.634Z,21.70
2018-07-15T06:18:01.044Z,22.10
2018-07-15T06:20:30.431Z,22.40
2018-07-15T06:23:00.363Z,22.30
2018-07-15T06:25:28.993Z,22.30
2018-07-15T06:27:57.960Z,22.60
2018-07-15T06:30:26.572Z,23.00
2018-07-15T06:32:55.211Z,22.50
2018-07-15T06:35:23.897Z,22.50
2018-07-15T06:37:52.596Z,22.60
2018-07-15T06:40:21.335Z,22.40
2018-07-15T06:42:50.737Z,22.10
2018-07-15T06:45:19.367Z,21.90
2018-07-15T06:47:48.650Z,22.20
2018-07-15T06:50:17.357Z,22.20
2018-07-15T06:52:46.039Z,22.40
2018-07-15T06:55:14.690Z,22.60
2018-07-15T06:57:43.281Z,22.70
2018-07-15T07:00:11.949Z,22.60
2018-07-15T07:02:40.567Z,22.70
2018-07-15T07:05:09.198Z,22.80
2018-07-15T07:07:37.815Z,22.80
2018-07-15T07:10:06.450Z,22.90
2018-07-15T07:12:35.089Z,23.00
2018-07-15T07:15:10.723Z,23.00
2018-07-15T07:17:39.522Z,23.20
2018-07-15T07:20:08.217Z,23.90
2018-07-15T07:22:37.702Z,24.50
2018-07-15T07:28:18.230Z,24.90
2018-07-15T07:30:46.897Z,25.50
2018-07-15T07:33:15.618Z,25.50
2018-07-15T07:35:44.700Z,25.30
2018-07-15T07:38:17.662Z,25.80
2018-07-15T07:40:46.669Z,26.70
2018-07-15T07:43:23.629Z,27.50
2018-07-15T07:45:52.413Z,29.30
2018-07-15T07:48:21.043Z,30.40
2018-07-15T07:50:50.248Z,30.70
2018-07-15T07:56:16.146Z,30.80
2018-07-15T07:58:44.783Z,31.50
2018-07-15T08:01:13.892Z,32.80
2018-07-15T08:03:42.582Z,32.90
2018-07-15T08:06:11.246Z,33.10
2018-07-15T08:08:39.922Z,33.60
2018-07-15T08:11:08.636Z,33.40
2018-07-15T08:13:37.242Z,33.50
2018-07-15T08:16:06.032Z,33.00
2018-07-15T08:18:34.684Z,34.00
2018-07-15T08:21:05.395Z,34.20
2018-07-15T08:23:36.188Z,34.70
2018-07-15T08:26:04.872Z,33.70
2018-07-15T08:28:33.680Z,35.10
2018-07-15T08:31:21.310Z,36.40
2018-07-15T08:33:49.982Z,36.00
2018-07-15T08:36:36.995Z,36.30
2018-07-15T08:39:07.027Z,37.20
2018-07-15T08:41:35.806Z,38.40
2018-07-15T08:44:04.440Z,38.60
2018-07-15T08:46:33.146Z,37.10
2018-07-15T08:49:01.820Z,36.80
2018-07-15T08:51:30.499Z,37.40
2018-07-15T08:53:59.170Z,38.50
2018-07-15T08:56:27.856Z,37.80
2018-07-15T08:58:56.490Z,37.00
2018-07-15T09:03:53.498Z,36.90
2018-07-15T09:06:27.757Z,38.00
2018-07-15T09:08:56.418Z,37.70
2018-07-15T09:11:25.010Z,38.50
2018-07-15T09:13:53.913Z,39.50
2018-07-15T09:16:25.702Z,40.60
2018-07-15T09:18:54.341Z,41.60
2018-07-15T09:21:22.959Z,41.60
2018-07-15T09:23:51.995Z,38.80
2018-07-15T09:26:20.562Z,36.90
2018-07-15T09:28:49.938Z,36.30
2018-07-15T09:31:18.584Z,36.30
2018-07-15T09:33:47.200Z,37.50
2018-07-15T09:36:16.513Z,38.40
2018-07-15T09:38:45.084Z,38.90
2018-07-15T09:43:41.871Z,38.80
2018-07-15T09:46:10.470Z,38.70
2018-07-15T09:48:39.134Z,37.20
2018-07-15T09:51:07.792Z,36.20
2018-07-15T09:53:36.550Z,34.20
2018-07-15T09:56:05.267Z,31.90
2018-07-15T10:01:02.401Z,30.40
2018-07-15T10:03:31.164Z,29.80
2018-07-15T10:06:01.102Z,29.70
2018-07-15T10:08:29.757Z,29.80
2018-07-15T10:10:58.452Z,29.60
2018-07-15T10:13:27.051Z,29.50
2018-07-15T10:15:55.683Z,29.40
2018-07-15T10:18:25.286Z,29.30
2018-07-15T10:20:59.964Z,29.60
2018-07-15T10:23:28.663Z,29.40
2018-07-15T10:26:04.058Z,29.60
2018-07-15T10:28:33.067Z,28.90
2018-07-15T10:31:01.842Z,28.80
2018-07-15T10:33:30.521Z,29.10
2018-07-15T10:35:59.318Z,29.30
2018-07-15T10:38:28.026Z,30.80
2018-07-15T10:40:56.731Z,32.20
2018-07-15T10:43:25.448Z,34.10
2018-07-15T10:45:58.230Z,36.10
2018-07-15T10:48:26.909Z,37.90
2018-07-15T10:50:55.599Z,38.20
2018-07-15T10:53:26.292Z,37.30
2018-07-15T10:56:03.160Z,36.90
2018-07-15T10:58:51.667Z,37.90
2018-07-15T11:01:38.296Z,37.90
2018-07-15T11:04:16.536Z,38.20
2018-07-15T11:06:49.268Z,39.70
2018-07-15T11:09:17.858Z,38.30
2018-07-15T11:11:46.492Z,37.00
2018-07-15T11:14:31.282Z,35.40
2018-07-15T11:17:00.004Z,34.50
2018-07-15T11:19:35.460Z,33.70
2018-07-15T11:22:04.330Z,33.10
2018-07-15T11:24:33.016Z,33.40
2018-07-15T11:29:42.974Z,35.60
2018-07-15T11:32:11.631Z,35.90
2018-07-15T11:34:40.246Z,36.00
2018-07-15T11:37:13.114Z,35.00
2018-07-15T11:39:41.773Z,33.40
2018-07-15T11:42:10.468Z,32.00
2018-07-15T11:44:39.165Z,31.60
2018-07-15T11:47:07.858Z,31.00
2018-07-15T11:52:47.685Z,29.40
2018-07-15T11:55:16.310Z,28.40
2018-07-15T11:57:47.202Z,27.70
2018-07-15T12:00:15.814Z,27.30
2018-07-15T12:02:46.942Z,26.80
2018-07-15T12:05:15.577Z,26.40
2018-07-15T12:07:44.264Z,26.30
2018-07-15T12:10:12.925Z,26.20
2018-07-15T12:12:43.674Z,26.20
2018-07-15T12:15:12.360Z,26.30
2018-07-15T12:17:40.962Z,26.60
2018-07-15T12:20:09.614Z,26.90
2018-07-15T12:22:38.322Z,27.40
2018-07-15T12:25:07.053Z,29.30
2018-07-15T12:27:38.627Z,31.40
2018-07-15T12:30:07.446Z,33.00
2018-07-15T12:35:04.423Z,33.30
2018-07-15T12:37:33.062Z,33.50
2018-07-15T12:40:20.479Z,34.30
2018-07-15T12:42:49.029Z,34.50
2018-07-15T12:45:17.799Z,34.90
2018-07-15T12:47:46.683Z,33.80
2018-07-15T12:50:15.430Z,32.00
2018-07-15T12:52:44.179Z,30.80
2018-07-15T12:55:19.205Z,29.80
2018-07-15T12:57:47.957Z,29.00
2018-07-15T13:00:16.824Z,28.60
2018-07-15T13:02:47.897Z,28.40
2018-07-15T13:05:16.569Z,28.30
2018-07-15T13:08:04.942Z,28.20
2018-07-15T13:10:37.032Z,27.70
2018-07-15T13:13:08.098Z,27.40
2018-07-15T13:15:36.765Z,27.30
2018-07-15T13:18:13.569Z,27.10
2018-07-15T13:20:50.463Z,26.60
2018-07-15T13:23:19.176Z,26.20
2018-07-15T13:25:47.902Z,25.70
2018-07-15T13:28:16.679Z,25.40
2018-07-15T13:30:45.372Z,25.10
2018-07-15T13:33:14.101Z,25.00
2018-07-15T13:35:42.803Z,24.80
2018-07-15T13:38:11.510Z,24.70
2018-07-15T13:40:40.201Z,24.50
2018-07-15T13:43:08.841Z,24.40
2018-07-15T13:45:38.055Z,24.50
2018-07-15T13:48:06.658Z,24.60
2018-07-15T13:50:35.453Z,24.70
2018-07-15T13:53:06.297Z,24.70
2018-07-15T13:55:34.956Z,24.70
2018-07-15T13:58:03.606Z,25.00
2018-07-15T14:00:32.395Z,25.20
2018-07-15T14:03:01.041Z,25.10
2018-07-15T14:05:29.691Z,24.80
2018-07-15T14:07:58.366Z,24.80
2018-07-15T14:10:27.007Z,25.70
2018-07-15T14:12:55.672Z,26.30
2018-07-15T14:15:24.431Z,26.60
2018-07-15T14:17:53.619Z,26.50
2018-07-15T14:22:50.719Z,26.80
2018-07-15T14:25:19.546Z,27.10
2018-07-15T14:27:48.312Z,27.40
2018-07-15T14:30:17.029Z,27.70
2018-07-15T14:32:45.990Z,28.00
2018-07-15T14:35:14.667Z,28.50
2018-07-15T14:37:47.434Z,28.80
2018-07-15T14:40:16.159Z,29.00
2018-07-15T14:42:44.824Z,29.20
2018-07-15T14:45:13.714Z,29.20
2018-07-15T14:47:42.672Z,29.30
2018-07-15T14:50:27.242Z,29.40
2018-07-15T14:52:59.106Z,29.40
2018-07-15T14:55:27.963Z,29.50
2018-07-15T14:57:56.686Z,29.60
2018-07-15T15:00:25.381Z,29.70
2018-07-15T15:02:54.345Z,30.00
2018-07-15T15:05:23.021Z,30.20
2018-07-15T15:10:22.358Z,31.00
2018-07-15T15:12:51.168Z,31.40
2018-07-15T15:15:22.081Z,31.80
2018-07-15T15:17:52.781Z,32.30
2018-07-15T15:23:14.084Z,32.70
2018-07-15T15:25:44.886Z,31.90
2018-07-15T15:28:13.462Z,31.60
2018-07-15T15:30:42.062Z,31.70
2018-07-15T15:33:10.656Z,31.70
2018-07-15T15:35:39.298Z,32.00
2018-07-15T15:38:07.979Z,32.10
2018-07-15T15:40:36.644Z,32.00
2018-07-15T15:43:08.363Z,32.20
2018-07-15T15:45:37.022Z,32.10
2018-07-15T15:51:08.686Z,32.40
2018-07-15T15:53:37.345Z,32.10
2018-07-15T15:56:06.041Z,31.70
2018-07-15T15:58:36.329Z,31.20
2018-07-15T16:01:05.020Z,30.70
2018-07-15T16:03:33.719Z,30.10
2018-07-15T16:06:02.459Z,29.30
2018-07-15T16:08:31.152Z,28.80
2018-07-15T16:10:59.825Z,28.10
2018-07-15T16:13:28.522Z,27.70
2018-07-15T16:15:57.217Z,27.40
2018-07-15T16:18:26.926Z,27.20
2018-07-15T16:20:55.975Z,26.90
2018-07-15T16:23:24.570Z,26.60
2018-07-15T16:25:53.250Z,26.60
2018-07-15T16:28:21.954Z,26.90
2018-07-15T16:30:51.783Z,27.10
2018-07-15T16:33:22.874Z,26.90
2018-07-15T16:35:51.553Z,26.60
2018-07-15T16:38:20.169Z,26.40
2018-07-15T16:40:48.952Z,26.30
2018-07-15T16:45:46.118Z,25.80
2018-07-15T16:48:14.785Z,25.40
2018-07-15T16:50:43.530Z,25.00
2018-07-15T16:53:12.190Z,24.70
2018-07-15T16:55:40.947Z,24.60
2018-07-15T16:58:10.699Z,24.60
2018-07-15T17:00:39.395Z,24.70
2018-07-15T17:03:08.958Z,24.70
2018-07-15T17:05:37.594Z,24.90
2018-07-15T17:08:06.306Z,24.80
2018-07-15T17:10:35.131Z,24.80
2018-07-15T17:13:03.895Z,24.80
2018-07-15T17:15:32.562Z,24.80
2018-07-15T17:18:01.199Z,24.70
2018-07-15T17:20:30.911Z,24.70
2018-07-15T17:25:27.949Z,24.50
2018-07-15T17:27:56.934Z,24.50
2018-07-15T17:30:25.617Z,24.40
2018-07-15T17:32:54.425Z,24.40
2018-07-15T17:35:23.862Z,24.30
2018-07-15T17:37:57.575Z,24.30
2018-07-15T17:40:26.403Z,24.20
2018-07-15T17:42:55.031Z,24.20
2018-07-15T17:45:23.825Z,24.30
2018-07-15T17:53:58.703Z,24.10
2018-07-15T17:56:27.564Z,23.90
2018-07-15T17:58:56.258Z,23.70
2018-07-15T18:01:25.174Z,23.60
2018-07-15T18:03:54.444Z,23.40
2018-07-15T18:06:25.220Z,23.10
2018-07-15T18:08:53.987Z,22.80
2018-07-15T18:11:24.779Z,22.60
2018-07-15T18:13:53.406Z,22.40
2018-07-15T18:16:22.148Z,22.10
2018-07-15T18:18:50.774Z,21.90
2018-07-15T18:21:19.506Z,21.70
2018-07-15T18:23:48.173Z,21.60
2018-07-15T18:26:16.968Z,21.50
2018-07-15T18:28:45.604Z,21.40
2018-07-15T18:31:14.303Z,21.30
2018-07-15T18:33:42.979Z,21.30
2018-07-15T18:36:17.564Z,21.20
2018-07-15T18:38:47.078Z,21.20
2018-07-15T18:41:28.762Z,21.20
2018-07-15T18:47:03.697Z,21.00
2018-07-15T18:49:32.389Z,21.00
2018-07-15T18:52:01.103Z,20.90
2018-07-15T18:54:35.545Z,20.80
2018-07-15T18:57:08.680Z,20.70
2018-07-15T18:59:40.405Z,20.70
2018-07-15T19:02:09.105Z,20.60
2018-07-15T19:07:30.658Z,20.40
2018-07-15T19:13:03.710Z,20.20
2018-07-15T19:15:43.345Z,20.10
2018-07-15T19:18:12.224Z,20.10
2018-07-15T19:20:41.502Z,20.00
2018-07-15T19:23:10.335Z,20.00
2018-07-15T19:25:39.012Z,20.00
2018-07-15T19:28:07.936Z,20.00
2018-07-15T19:30:36.653Z,20.00
2018-07-15T19:33:05.490Z,19.90
2018-07-15T19:35:35.357Z,19.90
2018-07-15T19:38:04.147Z,19.80
2018-07-15T19:40:32.898Z,19.70
2018-07-15T19:43:01.597Z,19.60
2018-07-15T19:45:30.514Z,19.50
2018-07-15T19:47:59.219Z,19.50
2018-07-15T19:50:28.119Z,19.40
2018-07-15T19:52:56.750Z,19.40
2018-07-15T19:55:25.433Z,19.40
2018-07-15T19:57:54.095Z,19.50
2018-07-15T20:00:22.849Z,19.60
2018-07-15T20:02:51.498Z,19.60
2018-07-15T20:05:21.454Z,19.50
2018-07-15T20:07:50.175Z,19.40
2018-07-15T20:10:18.888Z,19.30
2018-07-15T20:12:47.584Z,19.20
2018-07-15T20:15:16.422Z,19.20
2018-07-15T20:17:45.192Z,19.20
2018-07-15T20:20:14.810Z,19.20
2018-07-15T20:22:43.515Z,19.10
2018-07-15T20:25:12.272Z,19.10
2018-07-15T20:27:40.927Z,19.10
2018-07-15T20:30:09.640Z,19.10
2018-07-15T20:32:38.434Z,19.10
2018-07-15T20:37:35.554Z,19.10
2018-07-15T20:40:04.226Z,19.10
2018-07-15T20:42:33.998Z,19.10
2018-07-15T20:45:02.759Z,19.00
2018-07-15T20:47:33.443Z,18.80
2018-07-15T20:50:02.217Z,18.80
2018-07-15T20:52:30.890Z,18.80
2018-07-15T20:55:01.705Z,18.80
2018-07-15T20:57:30.457Z,18.90
2018-07-15T20:59:59.378Z,19.10
2018-07-15T21:08:13.483Z,19.20
2018-07-15T21:13:10.426Z,19.10
2018-07-15T21:15:39.116Z,19.00
2018-07-15T21:26:48.243Z,18.50
2018-07-15T21:29:16.884Z,18.50
2018-07-15T21:31:45.591Z,18.60
2018-07-15T21:34:14.232Z,18.60
2018-07-15T21:36:42.827Z,18.60
2018-07-15T21:39:13.657Z,18.60
2018-07-15T21:41:42.334Z,18.50
2018-07-15T21:44:10.897Z,18.50
2018-07-15T21:46:39.520Z,18.50
2018-07-15T21:49:08.093Z,18.40
2018-07-15T21:51:36.821Z,18.50
2018-07-15T21:54:05.749Z,18.40
2018-07-15T21:56:34.479Z,18.50
2018-07-15T21:59:03.302Z,18.50
2018-07-15T22:01:40.930Z,18.50
2018-07-15T22:04:10.846Z,18.60
2018-07-15T22:06:50.821Z,18.60
2018-07-15T22:09:30.964Z,18.50
2018-07-15T22:12:00.309Z,18.40
2018-07-15T22:14:28.978Z,18.50
2018-07-15T22:19:25.752Z,18.60
2018-07-15T22:21:55.426Z,18.60
2018-07-15T22:24:26.193Z,18.60
2018-07-15T22:26:54.843Z,18.60
2018-07-15T22:29:23.432Z,18.60
2018-07-15T22:31:52.099Z,18.50
2018-07-15T22:34:20.770Z,18.50
2018-07-15T22:36:49.926Z,18.40
2018-07-15T22:39:18.663Z,18.30
2018-07-15T22:41:47.278Z,18.30
2018-07-15T22:44:16.930Z,18.30
2018-07-15T22:46:45.654Z,18.20
2018-07-15T22:49:14.280Z,18.10
2018-07-15T22:51:43.121Z,18.10
2018-07-15T22:54:13.572Z,18.00
2018-07-15T22:59:11.201Z,18.10
2018-07-15T23:01:40.097Z,18.10
2018-07-15T23:04:08.824Z,18.00
2018-07-15T23:06:38.095Z,18.00
2018-07-15T23:12:24.078Z,18.10
2018-07-15T23:14:52.722Z,18.10
2018-07-15T23:17:21.907Z,18.10
2018-07-15T23:19:50.613Z,18.10
2018-07-15T23:22:19.281Z,18.00
2018-07-15T23:24:47.832Z,17.90
2018-07-15T23:27:16.546Z,17.90
2018-07-15T23:29:45.162Z,17.80
2018-07-15T23:34:42.098Z,17.70
2018-07-15T23:37:10.712Z,17.70
2018-07-15T23:39:39.366Z,17.70
2018-07-15T23:42:08.002Z,17.60
2018-07-15T23:44:36.662Z,17.60
2018-07-15T23:47:05.233Z,17.60
2018-07-15T23:49:33.827Z,17.60
2018-07-15T23:52:02.528Z,17.50
2018-07-15T23:54:31.217Z,17.50
2018-07-15T23:56:59.874Z,17.50
2018-07-15T23:59:28.458Z,17.50
